createdAt,value
2018-02-24T00:01:10.754Z,-0.48
2018-02-24T00:03:39.041Z,-0.47
2018-02-24T00:06:08.061Z,-0.54
2018-02-24T00:08:36.340Z,-0.49
2018-02-24T00:11:04.602Z,-0.52
2018-02-24T00:13:33.672Z,-0.52
2018-02-24T00:16:01.940Z,-0.56
2018-02-24T00:18:30.249Z,-0.51
2018-02-24T00:20:58.504Z,-0.51
2018-02-24T00:23:26.793Z,-0.54
2018-02-24T00:25:55.065Z,-0.45
2018-02-24T00:28:24.103Z,-0.58
2018-02-24T00:30:52.365Z,-0.59
2018-02-24T00:33:20.651Z,-0.46
2018-02-24T00:35:49.673Z,-0.44
2018-02-24T00:38:17.989Z,-0.46
2018-02-24T00:40:46.278Z,-0.54
2018-02-24T00:43:14.620Z,-0.46
2018-02-24T00:45:43.723Z,-0.45
2018-02-24T00:48:12.773Z,-0.41
2018-02-24T00:50:41.091Z,-0.57
2018-02-24T00:53:09.380Z,-0.57
2018-02-24T00:55:37.658Z,-0.47
2018-02-24T00:58:05.956Z,-0.50
2018-02-24T01:00:34.232Z,-0.50
2018-02-24T01:03:02.532Z,-0.48
2018-02-24T01:05:30.798Z,-0.51
2018-02-24T01:07:59.068Z,-0.55
2018-02-24T01:10:27.338Z,-0.54
2018-02-24T01:12:56.761Z,-0.49
2018-02-24T01:15:25.025Z,-0.51
2018-02-24T01:17:53.303Z,-0.51
2018-02-24T01:20:21.576Z,-0.51
2018-02-24T01:22:49.853Z,-0.44
2018-02-24T01:25:18.128Z,-0.45
2018-02-24T01:27:46.430Z,-0.50
2018-02-24T01:30:14.733Z,-0.54
2018-02-24T01:32:43.060Z,-0.55
2018-02-24T01:35:12.140Z,-0.60
2018-02-24T01:37:40.421Z,-0.54
2018-02-24T01:40:08.697Z,-0.75
2018-02-24T01:42:36.964Z,-0.68
2018-02-24T01:45:05.227Z,-0.62
2018-02-24T01:47:34.252Z,-0.58
2018-02-24T01:50:02.565Z,-0.53
2018-02-24T01:52:30.847Z,-0.56
2018-02-24T01:54:59.117Z,-0.60
2018-02-24T01:57:27.377Z,-0.65
2018-02-24T01:59:55.643Z,-0.65
2018-02-24T02:02:23.906Z,-0.68
2018-02-24T02:04:52.183Z,-0.67
2018-02-24T02:07:20.461Z,-0.70
2018-02-24T02:09:49.505Z,-0.73
2018-02-24T02:12:17.761Z,-0.72
2018-02-24T02:14:46.039Z,-0.72
2018-02-24T02:17:15.122Z,-0.81
2018-02-24T02:19:43.426Z,-0.87
2018-02-24T02:22:12.496Z,-0.91
2018-02-24T02:24:40.772Z,-1.01
2018-02-24T02:27:09.034Z,-0.99
2018-02-24T02:29:37.323Z,-1.04
2018-02-24T02:32:05.580Z,-1.16
2018-02-24T02:34:33.859Z,-1.20
2018-02-24T02:37:02.145Z,-1.23
2018-02-24T02:39:30.420Z,-1.39
2018-02-24T02:41:59.453Z,-1.42
2018-02-24T02:44:27.786Z,-1.41
2018-02-24T02:46:56.068Z,-1.54
2018-02-24T02:49:24.346Z,-1.63
2018-02-24T02:51:53.605Z,-1.72
2018-02-24T02:54:21.890Z,-1.70
2018-02-24T02:56:50.160Z,-1.72
2018-02-24T02:59:18.464Z,-1.77
2018-02-24T03:01:46.749Z,-1.84
2018-02-24T03:04:15.026Z,-1.89
2018-02-24T03:06:43.379Z,-1.92
2018-02-24T03:09:11.916Z,-2.05
2018-02-24T03:11:40.176Z,-2.06
2018-02-24T03:14:09.207Z,-2.14
2018-02-24T03:16:37.463Z,-2.17
2018-02-24T03:19:06.495Z,-2.27
2018-02-24T03:21:34.751Z,-2.27
2018-02-24T03:24:03.061Z,-2.28
2018-02-24T03:26:32.096Z,-2.36
2018-02-24T03:29:00.381Z,-2.42
2018-02-24T03:31:28.708Z,-2.41
2018-02-24T03:33:56.992Z,-2.42
2018-02-24T03:36:25.341Z,-2.48
2018-02-24T03:38:53.717Z,-2.52
2018-02-24T03:41:22.753Z,-2.61
2018-02-24T03:43:51.022Z,-2.60
2018-02-24T03:46:20.427Z,-2.70
2018-02-24T03:48:48.699Z,-2.74
2018-02-24T03:51:17.008Z,-2.76
2018-02-24T03:53:45.281Z,-2.76
2018-02-24T03:56:13.581Z,-2.87
2018-02-24T03:58:41.896Z,-2.85
2018-02-24T04:01:10.176Z,-2.95
2018-02-24T04:03:39.195Z,-2.98
2018-02-24T04:06:07.468Z,-3.04
2018-02-24T04:08:35.730Z,-3.09
2018-02-24T04:11:04.795Z,-3.15
2018-02-24T04:13:33.069Z,-3.14
2018-02-24T04:16:01.339Z,-3.20
2018-02-24T04:18:30.367Z,-3.16
2018-02-24T04:20:58.644Z,-3.25
2018-02-24T04:23:26.900Z,-3.28
2018-02-24T04:25:55.192Z,-3.24
2018-02-24T04:28:23.461Z,-3.28
2018-02-24T04:30:51.731Z,-3.34
2018-02-24T04:33:19.991Z,-3.41
2018-02-24T04:35:48.296Z,-3.39
2018-02-24T04:38:16.572Z,-3.41
2018-02-24T04:40:44.884Z,-3.35
2018-02-24T04:43:13.180Z,-3.43
2018-02-24T04:45:41.491Z,-3.43
2018-02-24T04:48:09.743Z,-3.47
2018-02-24T04:50:38.019Z,-3.47
2018-02-24T04:53:06.296Z,-3.46
2018-02-24T04:55:35.336Z,-3.51
2018-02-24T04:58:03.612Z,-3.54
2018-02-24T05:00:31.916Z,-3.49
2018-02-24T05:03:00.190Z,-3.49
2018-02-24T05:05:28.484Z,-3.51
2018-02-24T05:07:56.740Z,-3.53
2018-02-24T05:10:25.787Z,-3.64
2018-02-24T05:12:54.048Z,-3.68
2018-02-24T05:15:23.099Z,-3.66
2018-02-24T05:17:52.284Z,-3.67
2018-02-24T05:20:20.671Z,-3.73
2018-02-24T05:22:48.960Z,-3.69
2018-02-24T05:25:17.253Z,-3.71
2018-02-24T05:27:45.524Z,-3.75
2018-02-24T05:30:14.612Z,-3.76
2018-02-24T05:32:42.940Z,-3.76
2018-02-24T05:35:11.239Z,-3.76
2018-02-24T05:37:39.507Z,-3.92
2018-02-24T05:40:07.772Z,-3.83
2018-02-24T05:42:36.812Z,-3.84
2018-02-24T05:45:05.083Z,-3.84
2018-02-24T05:47:34.169Z,-3.86
2018-02-24T05:50:02.436Z,-3.90
2018-02-24T05:52:30.711Z,-3.92
2018-02-24T05:54:58.971Z,-3.98
2018-02-24T05:57:27.244Z,-3.96
2018-02-24T05:59:56.274Z,-4.03
2018-02-24T06:02:24.568Z,-4.08
2018-02-24T06:04:52.831Z,-4.09
2018-02-24T06:07:21.868Z,-4.10
2018-02-24T06:09:50.152Z,-4.05
2018-02-24T06:12:18.498Z,-4.13
2018-02-24T06:14:46.942Z,-4.14
2018-02-24T06:17:15.240Z,-4.13
2018-02-24T06:19:43.591Z,-4.18
2018-02-24T06:22:11.945Z,-4.18
2018-02-24T06:24:40.252Z,-4.20
2018-02-24T06:27:08.632Z,-4.11
2018-02-24T06:29:36.893Z,-4.15
2018-02-24T06:32:05.570Z,-4.19
2018-02-24T06:34:33.858Z,-4.12
2018-02-24T06:37:02.176Z,-4.13
2018-02-24T06:39:30.618Z,-4.12
2018-02-24T06:41:59.744Z,-4.15
2018-02-24T06:44:28.061Z,-4.09
2018-02-24T06:46:56.359Z,-4.13
2018-02-24T06:49:24.660Z,-4.15
2018-02-24T06:51:53.867Z,-4.04
2018-02-24T06:54:22.126Z,-4.08
2018-02-24T06:56:50.472Z,-3.97
2018-02-24T06:59:18.796Z,-3.94
2018-02-24T07:01:47.198Z,-3.92
2018-02-24T07:04:15.489Z,-3.84
2018-02-24T07:06:43.919Z,-3.84
2018-02-24T07:09:12.290Z,-3.83
2018-02-24T07:11:40.798Z,-3.72
2018-02-24T07:14:09.372Z,-3.64
2018-02-24T07:16:38.111Z,-3.68
2018-02-24T07:19:06.472Z,-3.64
2018-02-24T07:21:34.794Z,-3.47
2018-02-24T07:24:03.109Z,-3.49
2018-02-24T07:26:32.169Z,-3.63
2018-02-24T07:29:00.454Z,-3.45
2018-02-24T07:31:28.791Z,-3.34
2018-02-24T07:33:57.944Z,-3.40
2018-02-24T07:36:26.260Z,-3.37
2018-02-24T07:38:54.796Z,-3.39
2018-02-24T07:41:24.032Z,-3.29
2018-02-24T07:43:52.320Z,-3.19
2018-02-24T07:46:21.023Z,-3.21
2018-02-24T07:48:49.317Z,-3.33
2018-02-24T07:51:17.611Z,-3.09
2018-02-24T07:53:45.889Z,-3.07
2018-02-24T07:56:14.278Z,-3.01
2018-02-24T07:58:42.808Z,-2.92
2018-02-24T08:01:11.105Z,-2.86
2018-02-24T08:03:39.469Z,-2.82
2018-02-24T08:06:07.776Z,-2.69
2018-02-24T08:08:36.122Z,-2.72
2018-02-24T08:11:04.449Z,-2.56
2018-02-24T08:13:32.755Z,-2.63
2018-02-24T08:16:01.070Z,-2.59
2018-02-24T08:18:30.762Z,-2.44
2018-02-24T08:20:59.081Z,-2.32
2018-02-24T08:23:28.128Z,-2.21
2018-02-24T08:25:56.455Z,-2.30
2018-02-24T08:28:24.785Z,-2.27
2018-02-24T08:30:54.599Z,-2.20
2018-02-24T08:33:23.666Z,-2.18
2018-02-24T08:35:52.032Z,-1.92
2018-02-24T08:38:20.404Z,-2.07
2018-02-24T08:40:49.449Z,-1.97
2018-02-24T08:43:17.873Z,-1.83
2018-02-24T08:45:46.511Z,-1.47
2018-02-24T08:48:14.873Z,-1.67
2018-02-24T08:50:44.104Z,-1.55
2018-02-24T08:53:13.202Z,-1.44
2018-02-24T08:55:42.492Z,-1.44
2018-02-24T08:58:11.631Z,-1.44
2018-02-24T09:00:40.702Z,-1.60
2018-02-24T09:03:09.788Z,-1.53
2018-02-24T09:05:38.106Z,-1.25
2018-02-24T09:08:06.831Z,-1.28
2018-02-24T09:10:35.116Z,-0.85
2018-02-24T09:13:04.410Z,-1.15
2018-02-24T09:15:32.760Z,-1.12
2018-02-24T09:18:01.112Z,-1.04
2018-02-24T09:20:30.166Z,-0.79
2018-02-24T09:22:58.599Z,-0.75
2018-02-24T09:25:27.205Z,-0.46
2018-02-24T09:27:56.833Z,-0.51
2018-02-24T09:30:26.279Z,-0.41
2018-02-24T09:32:55.605Z,-0.28
2018-02-24T09:35:24.504Z,-0.29
2018-02-24T09:37:54.236Z,-0.24
2018-02-24T09:40:22.604Z,0.06
2018-02-24T09:42:51.005Z,0.02
2018-02-24T09:45:19.308Z,0.19
2018-02-24T09:47:47.633Z,-0.01
2018-02-24T09:50:16.001Z,-0.04
2018-02-24T09:52:44.311Z,0.23
2018-02-24T09:55:13.255Z,0.20
2018-02-24T09:57:42.045Z,0.27
2018-02-24T10:00:11.013Z,0.27
2018-02-24T10:02:39.717Z,0.56
2018-02-24T10:05:08.100Z,0.54
2018-02-24T10:07:36.377Z,0.79
2018-02-24T10:10:04.861Z,0.79
2018-02-24T10:12:33.981Z,0.44
2018-02-24T10:15:02.830Z,0.77
2018-02-24T10:17:33.456Z,0.75
2018-02-24T10:20:01.752Z,0.97
2018-02-24T10:22:30.214Z,1.20
2018-02-24T10:24:58.687Z,1.44
2018-02-24T10:27:27.001Z,1.41
2018-02-24T10:29:55.403Z,1.53
2018-02-24T10:32:23.861Z,1.68
2018-02-24T10:34:52.244Z,1.52
2018-02-24T10:37:20.886Z,1.57
2018-02-24T10:39:49.670Z,1.38
2018-02-24T10:42:19.522Z,1.33
2018-02-24T10:44:48.254Z,1.48
2018-02-24T10:47:17.040Z,1.44
2018-02-24T10:49:46.894Z,1.56
2018-02-24T10:52:15.863Z,1.70
2018-02-24T10:54:45.392Z,1.92
2018-02-24T10:57:14.717Z,1.77
2018-02-24T10:59:43.686Z,1.85
2018-02-24T11:02:12.264Z,1.84
2018-02-24T11:04:41.277Z,2.02
2018-02-24T11:07:10.023Z,1.92
2018-02-24T11:09:38.725Z,1.92
2018-02-24T11:12:07.588Z,2.20
2018-02-24T11:14:36.332Z,2.04
2018-02-24T11:17:05.451Z,2.45
2018-02-24T11:19:34.065Z,2.18
2018-02-24T11:22:02.634Z,2.24
2018-02-24T11:24:32.567Z,2.41
2018-02-24T11:27:01.233Z,2.39
2018-02-24T11:29:30.785Z,2.46
2018-02-24T11:31:59.612Z,2.20
2018-02-24T11:34:28.294Z,2.38
2018-02-24T11:36:56.917Z,2.67
2018-02-24T11:39:44.160Z,2.58
2018-02-24T11:42:13.752Z,2.55
2018-02-24T11:44:42.758Z,2.62
2018-02-24T11:47:11.316Z,2.62
2018-02-24T11:49:40.314Z,2.88
2018-02-24T11:52:09.388Z,2.83
2018-02-24T11:54:38.009Z,3.01
2018-02-24T11:57:06.804Z,3.13
2018-02-24T11:59:35.305Z,2.95
2018-02-24T12:02:04.233Z,2.96
2018-02-24T12:04:33.677Z,3.11
2018-02-24T12:07:02.149Z,3.14
2018-02-24T12:09:32.193Z,3.13
2018-02-24T12:12:00.793Z,2.89
2018-02-24T12:14:29.256Z,2.89
2018-02-24T12:16:57.926Z,2.99
2018-02-24T12:19:26.331Z,3.10
2018-02-24T12:21:56.628Z,3.23
2018-02-24T12:24:25.696Z,3.13
2018-02-24T12:26:55.520Z,2.93
2018-02-24T12:29:25.085Z,3.18
2018-02-24T12:31:53.507Z,3.14
2018-02-24T12:34:22.918Z,3.09
2018-02-24T12:36:51.249Z,3.31
2018-02-24T12:39:20.804Z,3.42
2018-02-24T12:41:49.341Z,3.15
2018-02-24T12:44:17.795Z,3.32
2018-02-24T12:46:46.862Z,3.50
2018-02-24T12:49:15.436Z,3.49
2018-02-24T12:51:43.969Z,3.38
2018-02-24T12:54:12.569Z,3.37
2018-02-24T12:56:41.380Z,3.56
2018-02-24T12:59:09.880Z,3.37
2018-02-24T13:01:38.726Z,3.63
2018-02-24T13:04:07.387Z,3.58
2018-02-24T13:06:36.018Z,3.58
2018-02-24T13:09:05.727Z,3.38
2018-02-24T13:11:34.535Z,3.54
2018-02-24T13:14:03.273Z,3.48
2018-02-24T13:16:32.239Z,3.55
2018-02-24T13:19:00.915Z,3.49
2018-02-24T13:21:29.558Z,3.57
2018-02-24T13:23:58.322Z,3.56
2018-02-24T13:26:27.101Z,3.66
2018-02-24T13:28:56.419Z,3.52
2018-02-24T13:31:25.468Z,4.09
2018-02-24T13:33:53.925Z,4.14
2018-02-24T13:36:22.381Z,4.15
2018-02-24T13:38:51.281Z,4.15
2018-02-24T13:41:20.334Z,3.92
2018-02-24T13:43:49.123Z,4.21
2018-02-24T13:46:18.690Z,3.94
2018-02-24T13:48:47.141Z,3.76
2018-02-24T13:51:15.752Z,3.85
2018-02-24T13:53:45.576Z,3.80
2018-02-24T13:56:15.083Z,3.77
2018-02-24T13:58:44.627Z,4.09
2018-02-24T14:01:13.800Z,4.02
2018-02-24T14:03:42.360Z,4.16
2018-02-24T14:06:11.882Z,3.61
2018-02-24T14:08:41.355Z,3.70
2018-02-24T14:11:09.794Z,3.56
2018-02-24T14:13:39.442Z,3.76
2018-02-24T14:16:08.093Z,3.92
2018-02-24T14:18:36.722Z,3.61
2018-02-24T14:21:06.510Z,3.71
2018-02-24T14:23:35.389Z,3.66
2018-02-24T14:26:04.360Z,3.78
2018-02-24T14:28:33.083Z,3.88
2018-02-24T14:31:01.854Z,3.95
2018-02-24T14:33:32.296Z,4.03
2018-02-24T14:36:01.085Z,3.99
2018-02-24T14:38:30.474Z,3.94
2018-02-24T14:40:59.788Z,3.73
2018-02-24T14:43:28.782Z,3.75
2018-02-24T14:45:57.659Z,3.80
2018-02-24T14:48:26.378Z,3.94
2018-02-24T14:50:55.373Z,3.89
2018-02-24T14:53:24.360Z,3.70
2018-02-24T14:55:53.161Z,3.85
2018-02-24T14:58:21.912Z,3.79
2018-02-24T15:00:50.367Z,3.85
2018-02-24T15:03:19.357Z,3.74
2018-02-24T15:05:48.599Z,3.83
2018-02-24T15:08:17.512Z,3.84
2018-02-24T15:10:46.069Z,3.94
2018-02-24T15:13:15.144Z,3.92
2018-02-24T15:15:44.955Z,3.61
2018-02-24T15:18:13.759Z,3.67
2018-02-24T15:20:42.648Z,3.68
2018-02-24T15:23:11.338Z,3.48
2018-02-24T15:25:39.952Z,3.41
2018-02-24T15:28:08.406Z,3.38
2018-02-24T15:30:36.906Z,3.28
2018-02-24T15:33:06.568Z,3.25
2018-02-24T15:35:35.802Z,3.28
2018-02-24T15:38:05.317Z,3.08
2018-02-24T15:40:34.625Z,3.09
2018-02-24T15:43:04.239Z,2.93
2018-02-24T15:45:32.970Z,2.91
2018-02-24T15:48:01.424Z,2.90
2018-02-24T15:50:30.299Z,2.83
2018-02-24T15:52:59.527Z,2.83
2018-02-24T15:55:28.338Z,2.74
2018-02-24T15:57:56.920Z,2.52
2018-02-24T16:00:26.030Z,2.36
2018-02-24T16:02:54.382Z,2.39
2018-02-24T16:05:22.705Z,2.35
2018-02-24T16:07:51.137Z,2.33
2018-02-24T16:10:20.173Z,2.14
2018-02-24T16:12:48.576Z,2.16
2018-02-24T16:15:16.984Z,2.11
2018-02-24T16:17:45.262Z,2.06
2018-02-24T16:20:13.551Z,1.99
2018-02-24T16:22:42.120Z,1.94
2018-02-24T16:25:11.203Z,1.88
2018-02-24T16:27:39.571Z,1.79
2018-02-24T16:30:07.972Z,1.79
2018-02-24T16:32:36.879Z,1.73
2018-02-24T16:35:05.833Z,1.62
2018-02-24T16:37:34.666Z,1.58
2018-02-24T16:40:03.692Z,1.57
2018-02-24T16:42:33.572Z,1.49
2018-02-24T16:45:01.890Z,1.45
2018-02-24T16:47:30.657Z,1.41
2018-02-24T16:49:59.203Z,1.39
2018-02-24T16:52:27.671Z,1.30
2018-02-24T16:54:56.353Z,1.24
2018-02-24T16:57:25.215Z,1.16
2018-02-24T16:59:53.478Z,1.12
2018-02-24T17:02:21.940Z,1.09
2018-02-24T17:04:51.011Z,1.04
2018-02-24T17:07:20.112Z,1.00
2018-02-24T17:09:48.645Z,0.97
2018-02-24T17:12:17.720Z,0.90
2018-02-24T17:14:47.028Z,0.85
2018-02-24T17:17:15.325Z,0.77
2018-02-24T17:19:44.960Z,0.73
2018-02-24T17:22:14.129Z,0.64
2018-02-24T17:24:42.437Z,0.59
2018-02-24T17:27:10.801Z,0.55
2018-02-24T17:29:39.110Z,0.49
2018-02-24T17:32:07.362Z,0.43
2018-02-24T17:34:35.858Z,0.41
2018-02-24T17:37:04.225Z,0.35
2018-02-24T17:39:32.796Z,0.33
2018-02-24T17:42:02.040Z,0.32
2018-02-24T17:44:30.390Z,0.24
2018-02-24T17:46:59.565Z,0.23
2018-02-24T17:49:28.091Z,0.17
2018-02-24T17:51:56.521Z,0.09
2018-02-24T17:54:24.840Z,0.08
2018-02-24T17:56:53.212Z,0.05
2018-02-24T17:59:21.500Z,-0.02
2018-02-24T18:01:49.916Z,-0.04
2018-02-24T18:04:18.243Z,0.04
2018-02-24T18:06:47.068Z,0.03
2018-02-24T18:09:15.438Z,-0.04
2018-02-24T18:11:43.891Z,-0.09
2018-02-24T18:14:12.254Z,-0.10
2018-02-24T18:16:40.574Z,-0.18
2018-02-24T18:19:08.968Z,-0.20
2018-02-24T18:21:37.235Z,-0.18
2018-02-24T18:24:05.652Z,-0.31
2018-02-24T18:26:33.939Z,-0.26
2018-02-24T18:29:03.308Z,-0.24
2018-02-24T18:31:32.411Z,-0.27
2018-02-24T18:34:01.543Z,-0.36
2018-02-24T18:36:29.873Z,-0.34
2018-02-24T18:38:58.185Z,-0.40
2018-02-24T18:41:26.473Z,-0.44
2018-02-24T18:43:54.849Z,-0.49
2018-02-24T18:46:24.644Z,-0.45
2018-02-24T18:48:53.163Z,-0.59
2018-02-24T18:51:21.510Z,-0.58
2018-02-24T18:53:50.565Z,-0.66
2018-02-24T18:56:20.968Z,-0.73
2018-02-24T18:58:49.258Z,-0.71
2018-02-24T19:01:17.602Z,-0.76
2018-02-24T19:03:46.170Z,-0.82
2018-02-24T19:06:14.452Z,-0.74
2018-02-24T19:08:42.812Z,-0.73
2018-02-24T19:11:11.201Z,-0.83
2018-02-24T19:13:39.805Z,-0.81
2018-02-24T19:16:08.113Z,-0.85
2018-02-24T19:18:36.458Z,-0.87
2018-02-24T19:21:04.945Z,-0.95
2018-02-24T19:23:33.335Z,-1.00
2018-02-24T19:26:01.743Z,-0.94
2018-02-24T19:28:30.801Z,-0.98
2018-02-24T19:30:59.229Z,-1.00
2018-02-24T19:33:27.513Z,-1.06
2018-02-24T19:35:56.076Z,-1.13
2018-02-24T19:38:24.653Z,-1.09
2018-02-24T19:40:53.242Z,-1.18
2018-02-24T19:43:21.623Z,-1.22
2018-02-24T19:45:50.689Z,-1.23
2018-02-24T19:48:18.945Z,-1.23
2018-02-24T19:50:47.285Z,-1.28
2018-02-24T19:53:15.749Z,-1.27
2018-02-24T19:55:44.130Z,-1.27
2018-02-24T19:58:12.593Z,-1.31
2018-02-24T20:00:40.942Z,-1.32
2018-02-24T20:03:09.280Z,-1.34
2018-02-24T20:05:37.741Z,-1.37
2018-02-24T20:08:06.028Z,-1.45
2018-02-24T20:10:34.378Z,-1.49
2018-02-24T20:13:02.644Z,-1.53
2018-02-24T20:15:30.921Z,-1.51
2018-02-24T20:18:00.081Z,-1.53
2018-02-24T20:20:28.505Z,-1.55
2018-02-24T20:22:56.969Z,-1.63
2018-02-24T20:25:25.285Z,-1.66
2018-02-24T20:27:53.614Z,-1.67
2018-02-24T20:30:21.896Z,-1.73
2018-02-24T20:32:51.053Z,-1.74
2018-02-24T20:35:19.375Z,-1.75
2018-02-24T20:37:48.394Z,-1.83
2018-02-24T20:40:17.675Z,-1.86
2018-02-24T20:42:45.948Z,-1.88
2018-02-24T20:45:14.293Z,-1.85
2018-02-24T20:47:42.666Z,-1.90
2018-02-24T20:50:11.024Z,-1.94
2018-02-24T20:52:40.125Z,-1.93
2018-02-24T20:55:08.420Z,-1.94
2018-02-24T20:57:36.719Z,-1.94
2018-02-24T21:00:05.186Z,-2.04
2018-02-24T21:02:34.481Z,-2.01
2018-02-24T21:05:02.751Z,-2.06
2018-02-24T21:07:31.104Z,-2.06
2018-02-24T21:09:59.411Z,-2.14
2018-02-24T21:12:27.772Z,-2.19
2018-02-24T21:14:56.102Z,-2.17
2018-02-24T21:17:25.174Z,-2.21
2018-02-24T21:19:54.614Z,-2.27
2018-02-24T21:22:22.923Z,-2.27
2018-02-24T21:24:51.970Z,-2.30
2018-02-24T21:27:20.333Z,-2.36
2018-02-24T21:29:49.351Z,-2.30
2018-02-24T21:32:17.637Z,-2.35
2018-02-24T21:34:46.673Z,-2.42
2018-02-24T21:37:14.957Z,-2.46
2018-02-24T21:39:44.806Z,-2.38
2018-02-24T21:42:13.091Z,-2.45
2018-02-24T21:44:41.370Z,-2.41
2018-02-24T21:47:09.647Z,-2.48
2018-02-24T21:49:37.928Z,-2.51
2018-02-24T21:52:06.205Z,-2.55
2018-02-24T21:54:34.479Z,-2.55
2018-02-24T21:57:03.681Z,-2.57
2018-02-24T21:59:32.037Z,-2.58
2018-02-24T22:02:01.634Z,-2.65
2018-02-24T22:04:29.910Z,-2.69
2018-02-24T22:06:58.348Z,-2.75
2018-02-24T22:09:26.606Z,-2.82
2018-02-24T22:11:54.917Z,-2.75
2018-02-24T22:14:23.188Z,-2.82
2018-02-24T22:16:51.508Z,-2.83
2018-02-24T22:19:19.764Z,-2.90
2018-02-24T22:21:48.138Z,-2.95
2018-02-24T22:24:16.461Z,-2.97
2018-02-24T22:26:44.819Z,-3.00
2018-02-24T22:29:13.190Z,-3.04
2018-02-24T22:31:42.279Z,-3.07
2018-02-24T22:34:10.615Z,-3.12
2018-02-24T22:36:39.048Z,-3.15
2018-02-24T22:39:08.103Z,-3.21
2018-02-24T22:41:36.500Z,-3.23
2018-02-24T22:44:04.823Z,-3.29
2018-02-24T22:46:33.309Z,-3.34
2018-02-24T22:49:01.693Z,-3.39
2018-02-24T22:51:29.966Z,-3.47
2018-02-24T22:53:58.219Z,-3.56
2018-02-24T22:56:26.483Z,-3.57
2018-02-24T22:58:54.837Z,-3.64
2018-02-24T23:01:23.135Z,-3.69
2018-02-24T23:03:51.401Z,-3.70
2018-02-24T23:06:20.421Z,-3.78
2018-02-24T23:08:48.737Z,-3.85
2018-02-24T23:11:17.763Z,-3.85
2018-02-24T23:13:46.043Z,-3.89
2018-02-24T23:16:14.304Z,-3.93
2018-02-24T23:18:42.616Z,-3.97
2018-02-24T23:21:10.876Z,-3.94
2018-02-24T23:23:39.147Z,-4.01
2018-02-24T23:26:08.164Z,-4.12
2018-02-24T23:28:36.423Z,-4.13
2018-02-24T23:31:04.695Z,-4.17
2018-02-24T23:33:32.971Z,-4.23
2018-02-24T23:36:02.051Z,-4.23
2018-02-24T23:38:30.320Z,-4.27
2018-02-24T23:41:00.246Z,-4.33
2018-02-24T23:43:29.273Z,-4.37
2018-02-24T23:45:57.524Z,-4.38
2018-02-24T23:48:26.577Z,-4.39
2018-02-24T23:50:54.833Z,-4.45
2018-02-24T23:53:23.866Z,-4.49
2018-02-24T23:55:52.121Z,-4.44
2018-02-24T23:58:20.396Z,-4.55
